< < Back
Terminal Aerodrome Forecast


Current Version              Previous Versions:   1  2  3  4  5  6  7  8  9  

Terminal Aerodrome Forecast

350
FTUS44 KOHX 032320
TAFCSV
TAF
KCSV 032320Z 0400/0424 28003KT P6SM SCT250
     FM040600 00000KT 4SM BR SCT150
      TEMPO 0409/0412 2SM BR SCT003
     FM041400 28008KT P6SM SCT045=

Latest METAR

813
SAUS70 KWBC 032300 RRF
MTRCSV
METAR KCSV 032253Z AUTO 29005KT 10SM CLR 29/18 A3000 RMK AO2 SLP140
T02890183


USA.gov is the U.S. government's official web portal to all federal, state and local government web resources and services.